Time;durP1;ratioP1;P1;durP2;ratioP2;P2;SDS_P1;SDS_P2;PMS_P1;PMS_P2;Temp;Humidity;BMP_temperature;BMP_pressure;BME280_temperature;BME280_humidity;BME280_pressure;Samples;Min_cycle;Max_cycle;Signal;HPM_P1;HPM_P2
2021/09/19 00:00:13;;;;;;;;;;;14.80;32.90;;;;;;4344372;33;19970;-39
2021/09/19 00:02:40;;;;;;;;;;;14.80;33.00;;;;;;4344714;33;19970;-41
2021/09/19 00:05:07;;;;;;;;;;;14.70;33.00;;;;;;4344406;33;19974;-39
2021/09/19 00:07:33;;;;;;;;;;;14.70;33.30;;;;;;4344236;33;20398;-39
2021/09/19 00:09:59;;;;;;;;;;;14.60;33.30;;;;;;4344417;33;20060;-40
2021/09/19 00:12:26;;;;;;;;;;;14.60;33.40;;;;;;4344162;33;19967;-39
2021/09/19 00:14:52;;;;;;;;;;;14.60;33.40;;;;;;4344208;33;20003;-38
2021/09/19 00:17:18;;;;;;;;;;;14.50;33.40;;;;;;4343703;33;19982;-39
2021/09/19 00:19:45;;;;;;;;;;;14.50;33.60;;;;;;4344152;33;20409;-41
2021/09/19 00:22:11;;;;;;;;;;;14.40;33.60;;;;;;4344410;33;19966;-39
2021/09/19 00:24:38;;;;;;;;;;;14.40;33.70;;;;;;4344037;33;20062;-39
2021/09/19 00:27:04;;;;;;;;;;;14.30;33.80;;;;;;4330432;33;19963;-40
2021/09/19 00:29:30;;;;;;;;;;;14.30;33.90;;;;;;4344439;33;19963;-41
2021/09/19 00:31:57;;;;;;;;;;;14.20;34.00;;;;;;4344116;33;19967;-40
2021/09/19 00:34:23;;;;;;;;;;;14.20;34.00;;;;;;4343943;33;20446;-40
2021/09/19 00:36:49;;;;;;;;;;;14.10;34.10;;;;;;4343844;33;19974;-39
2021/09/19 00:39:15;;;;;;;;;;;14.10;34.20;;;;;;4343675;33;19994;-41
2021/09/19 00:41:41;;;;;;;;;;;14.00;34.30;;;;;;4343797;32;19974;-42
2021/09/19 00:44:08;;;;;;;;;;;14.00;34.40;;;;;;4343996;33;19974;-40
2021/09/19 00:46:34;;;;;;;;;;;13.90;34.40;;;;;;4343673;33;20419;-39
2021/09/19 00:49:00;;;;;;;;;;;13.90;34.50;;;;;;4339361;32;20010;-42
2021/09/19 00:51:28;;;;;;;;;;;13.80;34.50;;;;;;4358468;32;20024;-39
2021/09/19 00:53:55;;;;;;;;;;;13.80;34.60;;;;;;4358524;32;20523;-39
2021/09/19 00:56:26;;;;;;;;;;;13.80;34.70;;;;;;4345040;32;19981;-39
2021/09/19 00:58:53;;;;;;;;;;;13.70;34.70;;;;;;4358856;32;19978;-39
2021/09/19 01:01:19;;;;;;;;;;;13.70;34.90;;;;;;4332201;32;20476;-41
2021/09/19 01:03:46;;;;;;;;;;;13.60;34.90;;;;;;4358758;32;20049;-40
2021/09/19 01:06:12;;;;;;;;;;;13.60;35.00;;;;;;4358870;32;20062;-39
2021/09/19 01:08:42;;;;;;;;;;;13.50;35.50;;;;;;4358422;32;19966;-39
2021/09/19 01:11:12;;;;;;;;;;;13.50;35.40;;;;;;4358103;32;19978;-40
2021/09/19 01:13:42;;;;;;;;;;;13.50;35.60;;;;;;4358401;32;19974;-40
2021/09/19 01:16:12;;;;;;;;;;;13.40;36.10;;;;;;4358352;32;19970;-40
2021/09/19 01:18:39;;;;;;;;;;;13.30;36.50;;;;;;4358997;32;19993;-38
2021/09/19 01:21:05;;;;;;;;;;;13.30;36.40;;;;;;4344365;32;20067;-36
2021/09/19 01:23:32;;;;;;;;;;;13.30;36.30;;;;;;4358433;32;20484;-41
2021/09/19 01:25:58;;;;;;;;;;;13.30;36.30;;;;;;4358512;32;20403;-39
2021/09/19 01:28:24;;;;;;;;;;;13.30;36.20;;;;;;4358385;32;19958;-39
2021/09/19 01:30:50;;;;;;;;;;;13.40;36.30;;;;;;4358321;32;20391;-40
2021/09/19 01:33:16;;;;;;;;;;;13.40;36.20;;;;;;4358136;32;19989;-39
2021/09/19 01:35:42;;;;;;;;;;;13.50;36.00;;;;;;4358376;32;19990;-39
2021/09/19 01:38:08;;;;;;;;;;;13.60;35.90;;;;;;4358330;32;20070;-38
2021/09/19 01:40:35;;;;;;;;;;;13.70;35.80;;;;;;4358525;32;19973;-38
2021/09/19 01:43:01;;;;;;;;;;;13.80;35.70;;;;;;4357902;32;19982;-39
2021/09/19 01:45:28;;;;;;;;;;;13.90;35.60;;;;;;4358163;32;20089;-39
2021/09/19 01:47:54;;;;;;;;;;;13.90;35.50;;;;;;4356020;32;19966;-41
2021/09/19 01:50:21;;;;;;;;;;;14.00;35.40;;;;;;4343470;33;19967;-39
2021/09/19 01:52:47;;;;;;;;;;;14.10;35.30;;;;;;4343579;32;19964;-40
2021/09/19 01:55:13;;;;;;;;;;;14.20;35.20;;;;;;4345491;33;20426;-39
2021/09/19 01:57:40;;;;;;;;;;;14.20;35.20;;;;;;4345972;33;19990;-39
2021/09/19 02:00:06;;;;;;;;;;;14.30;35.20;;;;;;4346388;33;20010;-41
2021/09/19 02:02:34;;;;;;;;;;;14.40;35.20;;;;;;4346187;33;20013;-41
2021/09/19 02:05:00;;;;;;;;;;;14.40;35.00;;;;;;4346089;33;20016;-40
2021/09/19 02:07:26;;;;;;;;;;;14.40;34.90;;;;;;4346236;33;20055;-40
2021/09/19 02:09:52;;;;;;;;;;;14.40;34.30;;;;;;4346145;33;19975;-41
2021/09/19 02:12:18;;;;;;;;;;;14.40;34.30;;;;;;4346167;33;19982;-41
2021/09/19 02:14:45;;;;;;;;;;;14.40;34.10;;;;;;4346025;33;19983;-41
2021/09/19 02:17:11;;;;;;;;;;;14.40;33.60;;;;;;4345759;33;20005;-40
2021/09/19 02:19:37;;;;;;;;;;;14.40;33.10;;;;;;4346022;33;20043;-37
2021/09/19 02:22:09;;;;;;;;;;;14.30;33.00;;;;;;4345808;33;20412;-40
2021/09/19 02:24:35;;;;;;;;;;;14.30;33.10;;;;;;4346031;33;19970;-38
2021/09/19 02:27:01;;;;;;;;;;;14.30;33.30;;;;;;4313568;33;19998;-39
2021/09/19 02:29:28;;;;;;;;;;;14.40;33.40;;;;;;4313486;33;20053;-39
2021/09/19 02:31:54;;;;;;;;;;;14.40;33.40;;;;;;4301081;33;19986;-40
2021/09/19 02:34:20;;;;;;;;;;;14.40;34.00;;;;;;4301495;33;20552;-41
2021/09/19 02:36:46;;;;;;;;;;;14.50;33.20;;;;;;4313797;33;19971;-40
2021/09/19 02:39:12;;;;;;;;;;;14.50;33.30;;;;;;4313507;33;20439;-38
2021/09/19 02:41:38;;;;;;;;;;;14.60;33.30;;;;;;4313792;33;19991;-39
2021/09/19 02:44:05;;;;;;;;;;;14.60;33.10;;;;;;4313762;33;20059;-40
2021/09/19 02:46:31;;;;;;;;;;;14.70;32.90;;;;;;4313907;33;20010;-38
2021/09/19 02:48:57;;;;;;;;;;;14.70;32.70;;;;;;4322267;33;20014;-39
2021/09/19 02:51:23;;;;;;;;;;;14.80;32.30;;;;;;4328411;33;20100;-39
2021/09/19 02:53:49;;;;;;;;;;;14.80;32.00;;;;;;4328195;33;20058;-40
2021/09/19 02:56:15;;;;;;;;;;;14.70;31.50;;;;;;4327623;33;20399;-40
2021/09/19 02:58:41;;;;;;;;;;;14.70;31.80;;;;;;4352988;32;20037;-40
2021/09/19 03:01:08;;;;;;;;;;;14.70;31.80;;;;;;4359931;32;19955;-40
2021/09/19 03:03:34;;;;;;;;;;;14.70;32.00;;;;;;4360039;32;19969;-40
2021/09/19 03:06:00;;;;;;;;;;;14.70;32.10;;;;;;4359813;32;19954;-39
2021/09/19 03:08:26;;;;;;;;;;;14.80;32.20;;;;;;4360186;32;19978;-40
2021/09/19 03:10:53;;;;;;;;;;;14.90;32.00;;;;;;4360227;32;20407;-41
2021/09/19 03:13:19;;;;;;;;;;;15.00;32.00;;;;;;4359587;32;20008;-39
2021/09/19 03:15:45;;;;;;;;;;;15.00;32.00;;;;;;4345779;32;20519;-40
2021/09/19 03:18:11;;;;;;;;;;;15.10;31.90;;;;;;4360195;32;19958;-40
2021/09/19 03:20:37;;;;;;;;;;;15.20;31.80;;;;;;4360552;32;19963;-41
2021/09/19 03:23:04;;;;;;;;;;;15.20;31.60;;;;;;4345989;32;19978;-40
2021/09/19 03:25:30;;;;;;;;;;;15.30;31.30;;;;;;4346175;32;20025;-40
2021/09/19 03:27:58;;;;;;;;;;;15.30;30.90;;;;;;4359775;32;20037;-40
2021/09/19 03:30:24;;;;;;;;;;;15.30;31.00;;;;;;4359668;32;20043;-40
2021/09/19 03:32:50;;;;;;;;;;;15.30;31.00;;;;;;4359297;32;20000;-39
2021/09/19 03:35:16;;;;;;;;;;;15.30;30.70;;;;;;4359470;32;19977;-41
2021/09/19 03:37:42;;;;;;;;;;;15.40;30.80;;;;;;4359687;32;19965;-41
2021/09/19 03:40:09;;;;;;;;;;;15.40;30.60;;;;;;4359438;32;20148;-41
2021/09/19 03:42:36;;;;;;;;;;;15.40;30.60;;;;;;4359430;32;20049;-38
2021/09/19 03:45:03;;;;;;;;;;;15.40;30.60;;;;;;4359359;32;19966;-40
2021/09/19 03:47:29;;;;;;;;;;;15.40;30.80;;;;;;4359327;32;19973;-41
2021/09/19 03:49:55;;;;;;;;;;;15.50;30.70;;;;;;4344389;32;20044;-42
2021/09/19 03:52:21;;;;;;;;;;;15.50;30.50;;;;;;4344189;32;19963;-42
2021/09/19 03:54:47;;;;;;;;;;;15.50;30.60;;;;;;4343843;32;20398;-41
2021/09/19 03:57:13;;;;;;;;;;;15.60;30.60;;;;;;4344617;32;20063;-40
2021/09/19 03:59:40;;;;;;;;;;;15.60;30.40;;;;;;4344555;32;19973;-42
2021/09/19 04:02:06;;;;;;;;;;;15.70;30.30;;;;;;4344458;32;20037;-40
2021/09/19 04:04:32;;;;;;;;;;;15.80;30.30;;;;;;4344199;32;19985;-41
2021/09/19 04:06:58;;;;;;;;;;;15.90;30.30;;;;;;4343808;32;19971;-45
2021/09/19 04:09:24;;;;;;;;;;;16.00;30.30;;;;;;4344483;32;19997;-39
2021/09/19 04:11:53;;;;;;;;;;;16.10;30.40;;;;;;4344206;32;19973;-38
2021/09/19 04:14:19;;;;;;;;;;;16.10;30.30;;;;;;4344225;32;19971;-38
2021/09/19 04:16:45;;;;;;;;;;;16.20;30.20;;;;;;4351375;32;20382;-39
2021/09/19 04:19:12;;;;;;;;;;;16.30;30.10;;;;;;4359060;32;20403;-41
2021/09/19 04:21:39;;;;;;;;;;;16.40;30.10;;;;;;4359591;32;20075;-41
2021/09/19 04:24:06;;;;;;;;;;;16.50;30.00;;;;;;4358788;32;19998;-40
2021/09/19 04:26:32;;;;;;;;;;;16.50;30.00;;;;;;4358843;32;19971;-41
2021/09/19 04:28:59;;;;;;;;;;;16.60;30.00;;;;;;4358919;32;20033;-40
2021/09/19 04:31:25;;;;;;;;;;;16.70;29.90;;;;;;4359014;32;19997;-41
2021/09/19 04:33:51;;;;;;;;;;;16.70;29.80;;;;;;4358470;32;19966;-40
2021/09/19 04:36:17;;;;;;;;;;;16.80;29.80;;;;;;4358587;32;20107;-41
2021/09/19 04:38:43;;;;;;;;;;;16.80;29.90;;;;;;4359007;32;19974;-41
2021/09/19 04:41:09;;;;;;;;;;;16.70;29.90;;;;;;4358625;32;19982;-39
2021/09/19 04:43:36;;;;;;;;;;;16.70;30.00;;;;;;4358260;32;19970;-39
2021/09/19 04:46:02;;;;;;;;;;;16.70;30.00;;;;;;4358885;32;19970;-40
2021/09/19 04:48:28;;;;;;;;;;;16.70;30.20;;;;;;4352677;32;19965;-39
2021/09/19 04:50:54;;;;;;;;;;;16.70;30.60;;;;;;4343928;33;19963;-39
2021/09/19 04:53:21;;;;;;;;;;;16.60;30.00;;;;;;4344060;33;20492;-39
2021/09/19 04:55:47;;;;;;;;;;;16.60;30.10;;;;;;4343825;33;19974;-39
2021/09/19 04:58:13;;;;;;;;;;;16.70;30.30;;;;;;4343937;33;19974;-39
2021/09/19 05:00:39;;;;;;;;;;;16.80;30.30;;;;;;4343788;33;19982;-39
2021/09/19 05:03:05;;;;;;;;;;;16.90;30.10;;;;;;4343624;33;20363;-40
2021/09/19 05:05:32;;;;;;;;;;;17.00;30.10;;;;;;4343845;32;19976;-38
2021/09/19 05:07:58;;;;;;;;;;;17.10;30.10;;;;;;4343337;32;19986;-44
2021/09/19 05:10:24;;;;;;;;;;;17.20;30.00;;;;;;4343460;33;19996;-39
2021/09/19 05:12:50;;;;;;;;;;;17.30;29.70;;;;;;4343100;32;19970;-41
2021/09/19 05:15:16;;;;;;;;;;;17.40;29.80;;;;;;4343773;32;19990;-40
2021/09/19 05:17:42;;;;;;;;;;;17.40;29.80;;;;;;4343144;33;19966;-40
2021/09/19 05:20:09;;;;;;;;;;;17.40;29.60;;;;;;4343686;33;20018;-40
2021/09/19 05:22:35;;;;;;;;;;;17.40;29.50;;;;;;4343181;33;19963;-41
2021/09/19 05:25:02;;;;;;;;;;;17.60;29.60;;;;;;4343142;33;19993;-39
2021/09/19 05:27:28;;;;;;;;;;;17.60;29.50;;;;;;4343509;33;19971;-39
2021/09/19 05:29:54;;;;;;;;;;;17.60;29.60;;;;;;4346408;33;19958;-39
2021/09/19 05:32:20;;;;;;;;;;;17.50;29.60;;;;;;4346216;33;19978;-40
2021/09/19 05:34:47;;;;;;;;;;;17.50;29.90;;;;;;4346305;33;19978;-40
2021/09/19 05:37:13;;;;;;;;;;;17.50;29.90;;;;;;4345942;33;19962;-40
2021/09/19 05:39:39;;;;;;;;;;;17.50;29.90;;;;;;4346156;33;20021;-40
2021/09/19 05:42:05;;;;;;;;;;;17.60;29.90;;;;;;4346333;33;19966;-39
2021/09/19 05:44:32;;;;;;;;;;;17.70;29.70;;;;;;4332668;33;19971;-39
2021/09/19 05:46:58;;;;;;;;;;;17.70;29.60;;;;;;4346486;33;19970;-39
2021/09/19 05:49:24;;;;;;;;;;;17.70;29.60;;;;;;4357720;32;20415;-41
2021/09/19 05:51:50;;;;;;;;;;;17.70;29.70;;;;;;4360885;32;20381;-40
2021/09/19 05:54:16;;;;;;;;;;;17.80;29.80;;;;;;4361467;32;20041;-41
2021/09/19 05:56:43;;;;;;;;;;;17.80;28.90;;;;;;4361079;32;19968;-40
2021/09/19 05:59:09;;;;;;;;;;;17.90;28.70;;;;;;4360924;32;20037;-40
2021/09/19 06:01:35;;;;;;;;;;;17.90;28.40;;;;;;4360769;32;20488;-40
2021/09/19 06:04:01;;;;;;;;;;;18.00;28.30;;;;;;4360932;32;20048;-42
2021/09/19 06:06:27;;;;;;;;;;;18.00;28.30;;;;;;4360830;32;20355;-42
2021/09/19 06:08:53;;;;;;;;;;;18.10;27.80;;;;;;4361121;32;20133;-40
2021/09/19 06:11:20;;;;;;;;;;;18.20;27.80;;;;;;4360851;32;19965;-41
2021/09/19 06:13:46;;;;;;;;;;;18.30;27.60;;;;;;4361009;32;20516;-45
2021/09/19 06:16:12;;;;;;;;;;;18.30;28.00;;;;;;4360455;32;20389;-40
2021/09/19 06:18:38;;;;;;;;;;;18.40;27.50;;;;;;4360771;32;20055;-40
2021/09/19 06:21:04;;;;;;;;;;;18.50;27.50;;;;;;4360482;32;20047;-39
2021/09/19 06:23:31;;;;;;;;;;;18.60;27.30;;;;;;4360591;32;19977;-41
2021/09/19 06:25:58;;;;;;;;;;;18.70;27.20;;;;;;4360809;32;19974;-41
2021/09/19 06:28:24;;;;;;;;;;;18.80;26.90;;;;;;4360923;32;19986;-41
2021/09/19 06:30:50;;;;;;;;;;;18.80;26.90;;;;;;4360783;32;19982;-41
2021/09/19 06:33:16;;;;;;;;;;;18.80;27.10;;;;;;4360428;32;20083;-39
2021/09/19 06:35:43;;;;;;;;;;;18.90;27.10;;;;;;4360123;32;21073;-38
2021/09/19 06:38:09;;;;;;;;;;;19.00;27.00;;;;;;4359779;32;19963;-39
2021/09/19 06:40:36;;;;;;;;;;;19.00;26.90;;;;;;4359636;32;19969;-39
2021/09/19 06:43:02;;;;;;;;;;;19.00;26.80;;;;;;4360017;32;20393;-39
2021/09/19 06:45:28;;;;;;;;;;;19.10;26.80;;;;;;4360514;32;19989;-39
2021/09/19 06:47:54;;;;;;;;;;;19.10;26.70;;;;;;4357831;32;19973;-39
2021/09/19 06:50:20;;;;;;;;;;;19.10;26.50;;;;;;4345747;33;19969;-39
2021/09/19 06:52:47;;;;;;;;;;;19.10;26.50;;;;;;4331485;33;20109;-39
2021/09/19 06:55:13;;;;;;;;;;;19.10;26.50;;;;;;4345150;33;19981;-41
2021/09/19 06:57:39;;;;;;;;;;;19.10;26.40;;;;;;4345231;33;19971;-39
2021/09/19 07:00:06;;;;;;;;;;;19.10;26.50;;;;;;4344962;33;20469;-40
2021/09/19 07:02:32;;;;;;;;;;;19.10;26.30;;;;;;4331200;33;20428;-38
2021/09/19 07:04:58;;;;;;;;;;;18.90;26.10;;;;;;4345260;33;20371;-38
2021/09/19 07:07:25;;;;;;;;;;;19.00;26.20;;;;;;4345272;33;20034;-38
2021/09/19 07:09:52;;;;;;;;;;;19.00;26.30;;;;;;4331513;33;20129;-40
2021/09/19 07:12:18;;;;;;;;;;;19.20;26.30;;;;;;4344769;33;20062;-39
2021/09/19 07:14:44;;;;;;;;;;;19.50;26.50;;;;;;4345020;33;20498;-39
2021/09/19 07:17:10;;;;;;;;;;;19.80;26.10;;;;;;4344620;33;19978;-38
2021/09/19 07:19:36;;;;;;;;;;;20.10;25.80;;;;;;4344766;33;20458;-39
2021/09/19 07:22:02;;;;;;;;;;;20.40;25.20;;;;;;4344676;33;19971;-39
2021/09/19 07:24:29;;;;;;;;;;;20.60;24.90;;;;;;4330976;33;19967;-39
2021/09/19 07:26:55;;;;;;;;;;;20.70;24.60;;;;;;4344758;33;20012;-39
2021/09/19 07:29:21;;;;;;;;;;;20.70;24.40;;;;;;4345131;33;19955;-38
2021/09/19 07:31:51;;;;;;;;;;;20.80;24.40;;;;;;4345130;33;20034;-39
2021/09/19 07:34:17;;;;;;;;;;;20.80;24.40;;;;;;4344974;33;19966;-39
2021/09/19 07:36:44;;;;;;;;;;;20.90;24.50;;;;;;4344367;33;20411;-39
2021/09/19 07:39:10;;;;;;;;;;;21.00;24.40;;;;;;4330800;33;19959;-39
2021/09/19 07:41:37;;;;;;;;;;;21.20;24.50;;;;;;4344609;33;19975;-39
2021/09/19 07:44:03;;;;;;;;;;;21.40;24.70;;;;;;4344742;33;19981;-41
2021/09/19 07:46:30;;;;;;;;;;;21.70;24.70;;;;;;4344635;33;19970;-38
2021/09/19 07:48:56;;;;;;;;;;;22.10;24.30;;;;;;4353210;32;19968;-39
2021/09/19 07:51:23;;;;;;;;;;;22.40;23.70;;;;;;4358855;32;19962;-39
2021/09/19 07:53:51;;;;;;;;;;;22.60;23.40;;;;;;4359388;32;20374;-39
2021/09/19 07:56:17;;;;;;;;;;;22.60;23.30;;;;;;4359008;32;20523;-39
2021/09/19 07:58:43;;;;;;;;;;;22.50;23.20;;;;;;4358433;32;19959;-39
2021/09/19 08:01:09;;;;;;;;;;;22.50;23.30;;;;;;4358917;32;19974;-38
2021/09/19 08:03:36;;;;;;;;;;;22.40;23.30;;;;;;4359222;32;19990;-38
2021/09/19 08:06:02;;;;;;;;;;;22.40;23.50;;;;;;4359192;32;19966;-38
2021/09/19 08:08:28;;;;;;;;;;;22.50;23.60;;;;;;4345201;32;20465;-38
2021/09/19 08:10:54;;;;;;;;;;;22.50;23.40;;;;;;4359174;32;19962;-38
2021/09/19 08:13:20;;;;;;;;;;;22.50;23.30;;;;;;4326285;33;19983;-38
2021/09/19 08:15:46;;;;;;;;;;;22.50;23.10;;;;;;4311324;33;20427;-38
2021/09/19 08:18:13;;;;;;;;;;;22.50;23.20;;;;;;4312150;33;19974;-38
2021/09/19 08:20:39;;;;;;;;;;;22.40;23.30;;;;;;4282691;33;20394;-40
2021/09/19 08:23:05;;;;;;;;;;;22.50;23.40;;;;;;4283075;33;20051;-39
2021/09/19 08:25:31;;;;;;;;;;;22.50;23.70;;;;;;4282905;33;19987;-39
2021/09/19 08:27:58;;;;;;;;;;;22.50;23.50;;;;;;4283300;33;19968;-39
2021/09/19 08:30:24;;;;;;;;;;;22.60;23.40;;;;;;4282749;33;20053;-38
2021/09/19 08:32:50;;;;;;;;;;;22.60;23.40;;;;;;4282861;33;20002;-40
2021/09/19 08:35:16;;;;;;;;;;;22.60;23.30;;;;;;4282886;33;20464;-39
2021/09/19 08:37:43;;;;;;;;;;;22.60;23.40;;;;;;4271353;33;19976;-37
2021/09/19 08:40:10;;;;;;;;;;;22.50;23.40;;;;;;4282878;33;19988;-38
2021/09/19 08:42:37;;;;;;;;;;;22.40;23.50;;;;;;4283060;33;20046;-39
2021/09/19 08:45:04;;;;;;;;;;;22.40;23.40;;;;;;4306060;33;19967;-39
2021/09/19 08:47:31;;;;;;;;;;;22.40;23.50;;;;;;4323634;33;20031;-38
2021/09/19 08:49:58;;;;;;;;;;;22.30;23.50;;;;;;4312311;33;19997;-39
2021/09/19 08:52:24;;;;;;;;;;;22.30;23.60;;;;;;4312176;33;20003;-39
2021/09/19 08:54:50;;;;;;;;;;;22.40;23.70;;;;;;4311439;33;20091;-39
2021/09/19 08:57:17;;;;;;;;;;;22.40;23.70;;;;;;4316752;33;19967;-39
2021/09/19 08:59:48;;;;;;;;;;;22.40;23.80;;;;;;4343617;33;19971;-40
2021/09/19 09:02:15;;;;;;;;;;;22.40;23.80;;;;;;4343758;33;20352;-40
2021/09/19 09:04:41;;;;;;;;;;;22.40;23.70;;;;;;4343512;33;20042;-39
2021/09/19 09:07:08;;;;;;;;;;;22.40;23.70;;;;;;4343670;33;20436;-38
2021/09/19 09:09:34;;;;;;;;;;;22.50;23.60;;;;;;4343115;33;20487;-39
2021/09/19 09:12:08;;;;;;;;;;;22.40;23.50;;;;;;4343504;33;19978;-39
2021/09/19 09:14:42;;;;;;;;;;;22.60;23.80;;;;;;4343261;33;19959;-41
2021/09/19 09:17:26;;;;;;;;;;;22.60;23.60;;;;;;4342853;33;20034;-38
2021/09/19 09:19:59;;;;;;;;;;;22.60;23.40;;;;;;4343327;33;20002;-39
2021/09/19 09:22:27;;;;;;;;;;;22.70;23.50;;;;;;4343239;33;19990;-40
2021/09/19 09:25:15;;;;;;;;;;;22.70;23.40;;;;;;4343601;33;19959;-39
2021/09/19 09:27:43;;;;;;;;;;;22.70;23.30;;;;;;4343706;33;19963;-39
2021/09/19 09:30:11;;;;;;;;;;;22.80;23.20;;;;;;4343562;33;20081;-39
2021/09/19 09:32:55;;;;;;;;;;;22.90;23.10;;;;;;4343585;33;20401;-41
2021/09/19 09:35:23;;;;;;;;;;;23.00;23.20;;;;;;4343194;33;19981;-39
2021/09/19 09:37:49;;;;;;;;;;;23.00;22.80;;;;;;4340200;33;19975;-39
2021/09/19 09:40:19;;;;;;;;;;;23.00;22.80;;;;;;4340606;33;19980;-39
2021/09/19 09:43:08;;;;;;;;;;;23.00;23.00;;;;;;4340740;33;19983;-39
2021/09/19 09:45:35;;;;;;;;;;;23.10;23.10;;;;;;4340938;33;19983;-39
2021/09/19 09:48:03;;;;;;;;;;;23.00;23.00;;;;;;4337970;33;19994;-40
2021/09/19 09:50:30;;;;;;;;;;;23.10;23.10;;;;;;4326079;33;20521;-40
2021/09/19 09:53:11;;;;;;;;;;;23.30;23.30;;;;;;4325852;33;20009;-40
2021/09/19 09:55:43;;;;;;;;;;;23.50;23.30;;;;;;4326122;33;20058;-39
2021/09/19 09:58:11;;;;;;;;;;;23.60;23.10;;;;;;4326238;33;20070;-40
2021/09/19 10:00:38;;;;;;;;;;;23.60;23.10;;;;;;4326057;33;19970;-39
2021/09/19 10:03:04;;;;;;;;;;;23.60;23.40;;;;;;4325666;33;19989;-39
2021/09/19 10:05:31;;;;;;;;;;;23.50;23.20;;;;;;4325839;33;19971;-39
2021/09/19 10:07:58;;;;;;;;;;;23.70;23.20;;;;;;4325874;33;20006;-40
2021/09/19 10:10:25;;;;;;;;;;;23.80;23.20;;;;;;4325664;33;19979;-40
2021/09/19 10:12:53;;;;;;;;;;;23.90;23.20;;;;;;4325885;33;19990;-41
2021/09/19 10:15:19;;;;;;;;;;;24.00;23.20;;;;;;4335746;33;19994;-40
2021/09/19 10:17:45;;;;;;;;;;;24.00;23.00;;;;;;4345719;33;19970;-40
2021/09/19 10:20:14;;;;;;;;;;;24.00;23.00;;;;;;4346018;33;19970;-41
2021/09/19 10:22:57;;;;;;;;;;;24.00;23.00;;;;;;4332160;33;19973;-40
2021/09/19 10:25:25;;;;;;;;;;;24.10;22.90;;;;;;4345470;33;20388;-41
2021/09/19 10:27:52;;;;;;;;;;;24.00;22.90;;;;;;4345917;33;19993;-40
2021/09/19 10:30:18;;;;;;;;;;;23.90;23.00;;;;;;4345460;33;20466;-40
2021/09/19 10:32:48;;;;;;;;;;;23.80;22.90;;;;;;4345163;33;19982;-41
2021/09/19 10:35:23;;;;;;;;;;;23.90;23.20;;;;;;4332290;33;20041;-40
2021/09/19 10:37:54;;;;;;;;;;;23.90;23.10;;;;;;4345392;33;20489;-41
2021/09/19 10:40:35;;;;;;;;;;;23.90;23.10;;;;;;4345312;33;20352;-41
2021/09/19 10:43:22;;;;;;;;;;;23.90;23.10;;;;;;4345623;33;20379;-40
2021/09/19 10:45:52;;;;;;;;;;;23.90;23.20;;;;;;4345233;33;19967;-40
2021/09/19 10:48:28;;;;;;;;;;;23.90;23.40;;;;;;4345387;33;19970;-40
2021/09/19 10:51:04;;;;;;;;;;;24.00;23.50;;;;;;4345221;33;19974;-39
2021/09/19 10:53:31;;;;;;;;;;;24.00;23.50;;;;;;4345108;33;20621;-40
2021/09/19 10:56:01;;;;;;;;;;;24.00;23.50;;;;;;4344987;33;19983;-40
2021/09/19 10:58:38;;;;;;;;;;;24.00;23.30;;;;;;4345032;33;20155;-40
2021/09/19 11:01:08;;;;;;;;;;;24.00;23.30;;;;;;4331290;33;19978;-40
2021/09/19 11:03:35;;;;;;;;;;;24.00;23.30;;;;;;4345303;33;20054;-39
2021/09/19 11:06:01;;;;;;;;;;;24.00;23.30;;;;;;4345120;33;19970;-40
2021/09/19 11:08:36;;;;;;;;;;;24.00;23.30;;;;;;4331638;33;19974;-40
2021/09/19 11:11:04;;;;;;;;;;;23.90;23.20;;;;;;4332418;33;20058;-40
2021/09/19 11:13:35;;;;;;;;;;;23.90;23.40;;;;;;4344962;33;20386;-39
2021/09/19 11:16:04;;;;;;;;;;;23.80;23.20;;;;;;4345174;33;19963;-40
2021/09/19 11:18:31;;;;;;;;;;;23.70;23.30;;;;;;4344790;33;19969;-40
2021/09/19 11:21:09;;;;;;;;;;;23.60;23.30;;;;;;4345047;33;19999;-40
2021/09/19 11:23:38;;;;;;;;;;;23.60;23.30;;;;;;4345332;33;20004;-40
2021/09/19 11:26:04;;;;;;;;;;;23.60;23.10;;;;;;4331087;33;20071;-40
2021/09/19 11:28:33;;;;;;;;;;;23.70;23.10;;;;;;4344475;33;20370;-40
2021/09/19 11:30:59;;;;;;;;;;;23.70;23.10;;;;;;4344670;33;19970;-40
2021/09/19 11:33:25;;;;;;;;;;;23.70;23.00;;;;;;4331145;33;20179;-39
2021/09/19 11:35:51;;;;;;;;;;;23.60;22.80;;;;;;4344524;33;19978;-40
2021/09/19 11:38:19;;;;;;;;;;;23.60;22.90;;;;;;4344419;33;20363;-40
2021/09/19 11:40:45;;;;;;;;;;;23.70;23.10;;;;;;4344360;33;19997;-40
2021/09/19 11:43:12;;;;;;;;;;;23.70;22.70;;;;;;4344430;33;19982;-39
2021/09/19 11:45:38;;;;;;;;;;;23.70;22.80;;;;;;4344878;33;19986;-41
2021/09/19 11:48:08;;;;;;;;;;;23.70;22.50;;;;;;4347645;32;19987;-40
2021/09/19 11:50:37;;;;;;;;;;;23.60;22.60;;;;;;4359195;32;20401;-39
2021/09/19 11:53:07;;;;;;;;;;;23.60;22.70;;;;;;4359313;32;20002;-39
2021/09/19 11:55:33;;;;;;;;;;;23.60;22.90;;;;;;4359220;32;20051;-46
2021/09/19 11:58:00;;;;;;;;;;;23.60;23.10;;;;;;4345302;32;19959;-40
2021/09/19 12:00:30;;;;;;;;;;;23.60;23.10;;;;;;4359397;32;20034;-40
2021/09/19 12:02:56;;;;;;;;;;;23.60;22.80;;;;;;4359311;32;20046;-40
2021/09/19 12:05:25;;;;;;;;;;;23.60;22.80;;;;;;4358843;32;19962;-41
2021/09/19 12:07:52;;;;;;;;;;;23.60;23.10;;;;;;4359166;32;20070;-40
2021/09/19 12:10:23;;;;;;;;;;;23.60;23.00;;;;;;4359116;32;19963;-40
2021/09/19 12:12:49;;;;;;;;;;;23.50;23.00;;;;;;4345192;32;20399;-39
2021/09/19 12:15:23;;;;;;;;;;;23.40;23.00;;;;;;4358940;32;20441;-40
2021/09/19 12:18:04;;;;;;;;;;;23.30;23.60;;;;;;4344745;32;19976;-40
2021/09/19 12:20:30;;;;;;;;;;;23.20;23.10;;;;;;4314571;33;20046;-40
2021/09/19 12:23:18;;;;;;;;;;;23.00;23.40;;;;;;4314262;33;19999;-40
2021/09/19 12:25:47;;;;;;;;;;;22.90;23.40;;;;;;4326553;33;19971;-39
2021/09/19 12:28:30;;;;;;;;;;;22.80;23.60;;;;;;4326434;33;20059;-39
2021/09/19 12:30:57;;;;;;;;;;;22.70;23.70;;;;;;4326797;33;20014;-39
2021/09/19 12:33:23;;;;;;;;;;;22.50;23.60;;;;;;4326703;33;20404;-41
2021/09/19 12:35:49;;;;;;;;;;;22.50;23.80;;;;;;4326424;33;19987;-40
2021/09/19 12:38:16;;;;;;;;;;;22.50;23.80;;;;;;4326051;33;19983;-40
2021/09/19 12:40:42;;;;;;;;;;;22.40;23.90;;;;;;4326803;33;19975;-40
2021/09/19 12:43:13;;;;;;;;;;;22.30;23.70;;;;;;4326126;33;20049;-40
2021/09/19 12:45:46;;;;;;;;;;;22.30;23.90;;;;;;4314146;33;20006;-40
2021/09/19 12:48:12;;;;;;;;;;;22.20;24.10;;;;;;4326094;33;20501;-40
2021/09/19 12:50:39;;;;;;;;;;;22.10;24.30;;;;;;4330749;32;20030;-39
2021/09/19 12:53:05;;;;;;;;;;;22.10;24.30;;;;;;4358474;32;20095;-38
2021/09/19 12:55:32;;;;;;;;;;;22.00;24.30;;;;;;4357943;32;19994;-38
2021/09/19 12:57:58;;;;;;;;;;;22.00;24.40;;;;;;4358256;32;20406;-39
2021/09/19 13:00:26;;;;;;;;;;;21.90;24.50;;;;;;4357894;32;20430;-40
2021/09/19 13:02:57;;;;;;;;;;;21.90;24.50;;;;;;4358349;32;20025;-40
2021/09/19 13:05:23;;;;;;;;;;;21.80;24.50;;;;;;4358617;32;20041;-39
2021/09/19 13:07:49;;;;;;;;;;;21.80;24.50;;;;;;4358512;32;19951;-39
2021/09/19 13:10:16;;;;;;;;;;;21.70;24.50;;;;;;4358279;32;20429;-40
2021/09/19 13:12:42;;;;;;;;;;;21.60;24.90;;;;;;4358770;32;19999;-39
2021/09/19 13:15:09;;;;;;;;;;;21.60;24.90;;;;;;4358527;32;19971;-40
2021/09/19 13:17:35;;;;;;;;;;;21.50;25.10;;;;;;4344186;32;19987;-40
2021/09/19 13:20:02;;;;;;;;;;;21.50;25.20;;;;;;4358156;32;20441;-40
2021/09/19 13:22:28;;;;;;;;;;;21.40;25.20;;;;;;4357779;32;20066;-39
2021/09/19 13:24:54;;;;;;;;;;;21.30;25.40;;;;;;4357989;32;20043;-41
2021/09/19 13:27:20;;;;;;;;;;;21.30;25.50;;;;;;4358150;32;20029;-38
2021/09/19 13:29:47;;;;;;;;;;;21.20;25.80;;;;;;4358220;32;19973;-39
2021/09/19 13:32:13;;;;;;;;;;;21.10;25.80;;;;;;4358173;32;19962;-41
2021/09/19 13:34:39;;;;;;;;;;;20.90;25.70;;;;;;4358132;32;20015;-40
2021/09/19 13:37:06;;;;;;;;;;;20.80;25.90;;;;;;4358214;32;19978;-40
2021/09/19 13:39:32;;;;;;;;;;;20.70;26.10;;;;;;4358070;32;20041;-41
2021/09/19 13:42:01;;;;;;;;;;;20.60;26.20;;;;;;4358111;32;20453;-40
2021/09/19 13:44:27;;;;;;;;;;;20.40;26.20;;;;;;4357981;32;19962;-40
2021/09/19 13:46:56;;;;;;;;;;;20.40;26.40;;;;;;4357668;32;20448;-39
2021/09/19 13:49:24;;;;;;;;;;;20.20;26.50;;;;;;4346505;32;20078;-40
2021/09/19 13:51:51;;;;;;;;;;;20.20;26.60;;;;;;4346091;32;20058;-40
2021/09/19 13:54:17;;;;;;;;;;;20.10;26.70;;;;;;4346281;32;19963;-40
2021/09/19 13:56:49;;;;;;;;;;;20.00;26.90;;;;;;4346480;32;19982;-39
2021/09/19 13:59:16;;;;;;;;;;;19.90;27.00;;;;;;4346262;32;19994;-40
2021/09/19 14:01:42;;;;;;;;;;;19.80;27.10;;;;;;4345829;32;20136;-41
2021/09/19 14:04:09;;;;;;;;;;;19.70;27.10;;;;;;4345942;32;20006;-39
2021/09/19 14:06:35;;;;;;;;;;;19.60;27.10;;;;;;4346090;32;20052;-41
2021/09/19 14:09:03;;;;;;;;;;;19.50;27.00;;;;;;4344498;33;20055;-40
2021/09/19 14:11:29;;;;;;;;;;;19.50;27.30;;;;;;4345838;32;19982;-39
2021/09/19 14:13:56;;;;;;;;;;;19.30;27.40;;;;;;4345865;32;19986;-40
2021/09/19 14:16:22;;;;;;;;;;;19.30;27.40;;;;;;4328008;33;20400;-39